Time;durP1;ratioP1;P1;durP2;ratioP2;P2;SDS_P1;SDS_P2;PMS_P1;PMS_P2;Temp;Humidity;BMP_temperature;BMP_pressure;BME280_temperature;BME280_humidity;BME280_pressure;Samples;Min_cycle;Max_cycle;Signal;HPM_P1;HPM_P2
2022/10/20 00:03:29;;;;;;;428.52;263.15;;;;;;;;;;5089902;28;20869;-65
2022/10/20 00:14:47;;;;;;;;;;;;;;;;;;5127865;27;20370;-65
2022/10/20 00:17:13;;;;;;;176.65;159.48;;;;;;;;;;5111317;28;20663;-65
2022/10/20 00:19:39;;;;;;;;;;;;;;;;;;5111293;28;20077;-65
2022/10/20 00:22:05;;;;;;;179.57;161.83;;;;;;;;;;5110857;28;20400;-65
2022/10/20 00:25:26;;;;;;;497.98;261.35;;;;;;;;;;5127403;27;20365;-65
2022/10/20 00:27:52;;;;;;;;;;;;;;;;;;5111458;28;20027;-65
2022/10/20 00:30:18;;;;;;;594.75;286.77;;;;;;;;;;5110763;28;20401;-65
2022/10/20 00:33:51;;;;;;;546.42;336.20;;;;;;;;;;5127294;27;20377;-65
2022/10/20 00:36:17;;;;;;;;;;;;;;;;;;5111823;28;20102;-65
2022/10/20 00:38:44;;;;;;;544.55;284.23;;;;;;;;;;5108987;28;20425;-65
2022/10/20 00:43:00;;;;;;;615.58;299.00;;;;;;;;;;5127847;27;20376;-64
2022/10/20 00:47:10;;;;;;;658.78;281.23;;;;;;;;;;5127697;27;20380;-65
2022/10/20 00:49:36;;;;;;;483.67;270.25;;;;;;;;;;5109671;28;20487;-65
2022/10/20 00:52:02;;;;;;;;;;;;;;;;;;5111984;28;20375;-65
2022/10/20 00:56:49;;;;;;;355.35;212.63;;;;;;;;;;5103820;27;20308;-65
2022/10/20 01:02:44;;;;;;;297.17;195.52;;;;;;;;;;5127067;27;20370;-65
2022/10/20 01:06:36;;;;;;;615.40;546.03;;;;;;;;;;5127285;27;20399;-65
2022/10/20 01:09:03;;;;;;;517.72;274.92;;;;;;;;;;5109627;28;20035;-65
2022/10/20 01:11:47;;;;;;;554.20;364.15;;;;;;;;;;5111237;28;20024;-65
2022/10/20 01:14:22;;;;;;;525.30;310.42;;;;;;;;;;5109943;28;20028;-65
2022/10/20 01:16:52;;;;;;;577.17;338.85;;;;;;;;;;5110938;28;20464;-65
2022/10/20 01:21:05;;;;;;;817.30;575.08;;;;;;;;;;5127553;27;20389;-65
2022/10/20 01:23:56;;;;;;;;;;;;;;;;;;5127437;27;20388;-65
2022/10/20 01:26:22;;;;;;;;;;;;;;;;;;5111741;28;19912;-65
2022/10/20 01:28:48;;;;;;;;;;;;;;;;;;5111708;28;20318;-65
2022/10/20 01:31:14;;;;;;;;;;;;;;;;;;5110034;28;20305;-65
2022/10/20 01:33:40;;;;;;;;;;;;;;;;;;5111668;28;19908;-65
2022/10/20 01:36:06;;;;;;;;;;;;;;;;;;5111667;28;19908;-65
2022/10/20 01:38:32;;;;;;;;;;;;;;;;;;5111145;28;19908;-65
2022/10/20 01:40:58;;;;;;;;;;;;;;;;;;5111989;28;20380;-65
2022/10/20 01:43:24;;;;;;;;;;;;;;;;;;5111350;28;20272;-66
2022/10/20 01:45:50;;;;;;;;;;;;;;;;;;5111035;28;19908;-65
2022/10/20 01:48:16;;;;;;;;;;;;;;;;;;5111406;28;19915;-65
2022/10/20 01:50:42;;;;;;;;;;;;;;;;;;5110978;28;19908;-65
2022/10/20 01:53:08;;;;;;;;;;;;;;;;;;5111285;28;20007;-65
2022/10/20 01:55:34;;;;;;;;;;;;;;;;;;5111590;28;19915;-65
2022/10/20 01:58:00;;;;;;;;;;;;;;;;;;5110791;28;19909;-65
2022/10/20 02:00:26;;;;;;;;;;;;;;;;;;5111115;28;19961;-65
2022/10/20 02:02:51;;;;;;;;;;;;;;;;;;5111187;28;19977;-65
2022/10/20 02:09:39;;;;;;;595.22;370.73;;;;;;;;;;5127437;27;20369;-65
2022/10/20 02:13:07;;;;;;;470.38;269.88;;;;;;;;;;5127054;27;20381;-65
2022/10/20 02:15:36;;;;;;;237.60;154.40;;;;;;;;;;5111740;28;20077;-65
2022/10/20 02:19:15;;;;;;;;;;;;;;;;;;5127916;27;20423;-65
2022/10/20 02:22:11;;;;;;;237.10;159.20;;;;;;;;;;5128133;27;20852;-66
2022/10/20 02:24:37;;;;;;;;;;;;;;;;;;5111715;28;20020;-66
2022/10/20 02:27:03;;;;;;;;;;;;;;;;;;5111295;28;19904;-66
2022/10/20 02:29:29;;;;;;;;;;;;;;;;;;5111723;28;19942;-66
2022/10/20 02:31:55;;;;;;;;;;;;;;;;;;5111626;28;19957;-66
2022/10/20 02:34:21;;;;;;;;;;;;;;;;;;5111251;28;19904;-66
2022/10/20 02:36:47;;;;;;;384.33;221.43;;;;;;;;;;5110133;28;20434;-66
2022/10/20 02:43:19;;;;;;;555.08;384.13;;;;;;;;;;5127769;27;20377;-65
2022/10/20 02:45:45;;;;;;;556.97;366.05;;;;;;;;;;5111324;28;20031;-65
2022/10/20 02:48:11;;;;;;;547.42;318.15;;;;;;;;;;5110875;28;20404;-65
2022/10/20 02:50:37;;;;;;;568.75;310.48;;;;;;;;;;5111262;28;20016;-65
2022/10/20 02:53:04;;;;;;;623.38;305.17;;;;;;;;;;5111197;28;20024;-65
2022/10/20 02:55:30;;;;;;;643.50;309.98;;;;;;;;;;5110918;28;20103;-65
2022/10/20 02:58:10;;;;;;;227.85;174.05;;;;;;;;;;5127360;27;20403;-65
2022/10/20 03:00:36;;;;;;;288.80;190.57;;;;;;;;;;5111652;28;20020;-65
2022/10/20 03:03:02;;;;;;;293.73;201.18;;;;;;;;;;5109971;28;20028;-65
2022/10/20 03:05:28;;;;;;;286.20;196.07;;;;;;;;;;5111511;28;20020;-65
2022/10/20 03:07:54;;;;;;;;;;;;;;;;;;5111070;28;20357;-65
2022/10/20 03:10:20;;;;;;;;;;;;;;;;;;5111910;28;19914;-65
2022/10/20 03:12:46;;;;;;;;;;;;;;;;;;5111654;28;19908;-65
2022/10/20 03:15:12;;;;;;;;;;;;;;;;;;5111279;28;19961;-65
2022/10/20 03:17:38;;;;;;;;;;;;;;;;;;5111394;28;20287;-65
2022/10/20 03:20:04;;;;;;;;;;;;;;;;;;5111943;28;20391;-65
2022/10/20 03:22:30;;;;;;;;;;;;;;;;;;5111044;28;20380;-65
2022/10/20 03:24:56;;;;;;;;;;;;;;;;;;5111393;28;20364;-65
2022/10/20 03:27:22;;;;;;;732.22;417.92;;;;;;;;;;5110527;28;20788;-66
2022/10/20 03:29:48;;;;;;;805.17;472.70;;;;;;;;;;5109144;28;20030;-66
2022/10/20 03:32:14;;;;;;;888.03;487.20;;;;;;;;;;5110732;28;20204;-66
2022/10/20 03:34:40;;;;;;;833.17;473.60;;;;;;;;;;5110723;28;20020;-66
2022/10/20 03:37:06;;;;;;;807.97;468.58;;;;;;;;;;5110142;28;20028;-66
2022/10/20 03:39:32;;;;;;;791.30;468.75;;;;;;;;;;5110693;28;20490;-66
2022/10/20 03:41:58;;;;;;;778.17;464.48;;;;;;;;;;5110664;28;20077;-66
2022/10/20 03:44:24;;;;;;;786.75;469.58;;;;;;;;;;5110232;28;20059;-66
2022/10/20 03:46:50;;;;;;;764.47;465.42;;;;;;;;;;5110681;28;20028;-66
2022/10/20 03:49:17;;;;;;;761.70;459.63;;;;;;;;;;5110439;28;20020;-65
2022/10/20 03:51:43;;;;;;;814.72;459.30;;;;;;;;;;5109985;28;20026;-65
2022/10/20 03:54:09;;;;;;;649.55;390.25;;;;;;;;;;5109186;28;20367;-66
2022/10/20 03:56:35;;;;;;;721.88;324.50;;;;;;;;;;5110154;28;20048;-66
2022/10/20 03:59:01;;;;;;;563.60;294.27;;;;;;;;;;5109799;28;20027;-66
2022/10/20 04:01:29;;;;;;;479.67;268.90;;;;;;;;;;5110230;28;20020;-65
2022/10/20 04:03:55;;;;;;;522.47;285.10;;;;;;;;;;5110232;28;20358;-66
2022/10/20 04:06:21;;;;;;;551.53;284.08;;;;;;;;;;5109676;28;20026;-65
2022/10/20 04:08:47;;;;;;;597.78;299.25;;;;;;;;;;5100522;28;20032;-66
2022/10/20 04:11:14;;;;;;;590.90;295.83;;;;;;;;;;5096038;28;20020;-66
2022/10/20 04:13:40;;;;;;;615.45;308.23;;;;;;;;;;5095496;28;20035;-66
2022/10/20 04:16:06;;;;;;;601.28;302.90;;;;;;;;;;5092969;28;20020;-65
2022/10/20 04:18:32;;;;;;;605.05;310.33;;;;;;;;;;5094534;28;20585;-65
2022/10/20 04:20:58;;;;;;;569.28;301.15;;;;;;;;;;5096372;28;20028;-65
2022/10/20 04:23:24;;;;;;;593.95;304.75;;;;;;;;;;5095827;28;20024;-65
2022/10/20 04:25:50;;;;;;;603.53;304.00;;;;;;;;;;5093949;28;20055;-65
2022/10/20 04:28:18;;;;;;;600.40;313.33;;;;;;;;;;5094132;28;20420;-66
2022/10/20 04:30:44;;;;;;;576.22;295.88;;;;;;;;;;5094350;28;20016;-65
2022/10/20 04:33:11;;;;;;;573.92;299.75;;;;;;;;;;5093849;28;20380;-66
2022/10/20 04:35:37;;;;;;;582.92;312.50;;;;;;;;;;5094199;28;20024;-66
2022/10/20 04:38:03;;;;;;;573.85;310.85;;;;;;;;;;5092852;28;20624;-65
2022/10/20 04:40:29;;;;;;;601.55;307.83;;;;;;;;;;5093970;28;20020;-65
2022/10/20 04:42:55;;;;;;;570.22;309.85;;;;;;;;;;5094743;28;20381;-65
2022/10/20 04:45:22;;;;;;;562.30;299.27;;;;;;;;;;5095886;28;20054;-65
2022/10/20 04:47:48;;;;;;;562.05;300.70;;;;;;;;;;5095137;28;20024;-65
2022/10/20 04:50:14;;;;;;;560.60;307.58;;;;;;;;;;5095604;28;20031;-66
2022/10/20 04:52:40;;;;;;;570.53;307.00;;;;;;;;;;5094490;28;20027;-65
2022/10/20 04:55:06;;;;;;;541.13;301.05;;;;;;;;;;5092786;28;20237;-65
2022/10/20 04:57:33;;;;;;;538.03;296.08;;;;;;;;;;5093991;28;20135;-65
2022/10/20 04:59:59;;;;;;;535.70;296.75;;;;;;;;;;5094865;28;20317;-65
2022/10/20 05:02:25;;;;;;;556.80;300.27;;;;;;;;;;5094456;28;20027;-66
2022/10/20 05:04:51;;;;;;;568.88;308.90;;;;;;;;;;5094837;28;20215;-66
2022/10/20 05:07:17;;;;;;;608.92;313.73;;;;;;;;;;5094978;28;20099;-66
2022/10/20 05:09:43;;;;;;;634.40;319.55;;;;;;;;;;5093670;28;20488;-66
2022/10/20 05:12:09;;;;;;;610.13;310.98;;;;;;;;;;5093292;28;20346;-67
2022/10/20 05:14:35;;;;;;;596.67;307.17;;;;;;;;;;5088779;28;20016;-66
2022/10/20 05:17:01;;;;;;;576.53;305.60;;;;;;;;;;5083756;28;20082;-67
2022/10/20 05:19:28;;;;;;;580.40;306.08;;;;;;;;;;5081151;28;20055;-64
2022/10/20 05:21:54;;;;;;;583.85;316.42;;;;;;;;;;5081107;28;20024;-64
2022/10/20 05:24:20;;;;;;;639.72;322.40;;;;;;;;;;5079057;28;20495;-65
2022/10/20 05:26:46;;;;;;;671.05;335.50;;;;;;;;;;5085402;28;20026;-64
2022/10/20 05:29:13;;;;;;;631.60;327.08;;;;;;;;;;5087930;28;20020;-65
2022/10/20 05:31:40;;;;;;;620.17;322.90;;;;;;;;;;5091228;28;20024;-66
2022/10/20 05:34:06;;;;;;;642.97;317.38;;;;;;;;;;5089238;28;20047;-67
2022/10/20 05:36:32;;;;;;;622.42;321.30;;;;;;;;;;5087718;28;20031;-66
2022/10/20 05:38:58;;;;;;;597.08;310.75;;;;;;;;;;5085937;28;20081;-66
2022/10/20 05:41:26;;;;;;;578.47;304.35;;;;;;;;;;5092313;28;20073;-66
2022/10/20 05:43:56;;;;;;;476.83;278.60;;;;;;;;;;5090250;28;20531;-67
2022/10/20 05:46:22;;;;;;;469.38;275.65;;;;;;;;;;5088640;28;20373;-66
2022/10/20 05:48:51;;;;;;;532.13;295.58;;;;;;;;;;5087657;28;20027;-67
2022/10/20 05:51:19;;;;;;;448.45;266.42;;;;;;;;;;5090739;28;20032;-67
2022/10/20 05:53:48;;;;;;;504.52;289.83;;;;;;;;;;5091848;28;20464;-67
2022/10/20 05:56:18;;;;;;;487.33;286.80;;;;;;;;;;5092199;28;20400;-67
2022/10/20 05:58:46;;;;;;;438.23;266.52;;;;;;;;;;5093033;28;20028;-66
2022/10/20 06:01:19;;;;;;;384.55;252.98;;;;;;;;;;5086974;28;20096;-66
2022/10/20 06:03:45;;;;;;;;;;;;;;;;;;5092566;28;20020;-68
2022/10/20 06:06:11;;;;;;;454.50;280.05;;;;;;;;;;5091023;28;20271;-67
2022/10/20 06:08:37;;;;;;;407.52;260.50;;;;;;;;;;5090007;28;20024;-66
2022/10/20 06:11:05;;;;;;;382.20;251.35;;;;;;;;;;5090604;28;20020;-66
2022/10/20 06:13:31;;;;;;;213.70;187.77;;;;;;;;;;5091614;28;20175;-65
2022/10/20 06:16:04;;;;;;;326.10;231.18;;;;;;;;;;5091788;28;20024;-66
2022/10/20 06:18:30;;;;;;;;;;;;;;;;;;5086685;28;20034;-66
2022/10/20 06:21:04;;;;;;;326.02;228.27;;;;;;;;;;5089744;28;19904;-65
2022/10/20 06:23:30;;;;;;;148.90;136.70;;;;;;;;;;5086986;28;20036;-67
2022/10/20 06:26:01;;;;;;;159.60;145.55;;;;;;;;;;5089827;28;20083;-66
2022/10/20 06:29:11;;;;;;;464.17;272.65;;;;;;;;;;5124429;27;20473;-64
2022/10/20 06:32:07;;;;;;;479.83;284.57;;;;;;;;;;5123506;27;20814;-64
2022/10/20 06:34:33;;;;;;;444.92;267.52;;;;;;;;;;5105791;28;20568;-64
2022/10/20 06:36:59;;;;;;;546.88;300.00;;;;;;;;;;5104709;28;20043;-64
2022/10/20 06:41:56;;;;;;;698.67;348.55;;;;;;;;;;5106538;27;20373;-65
2022/10/20 06:45:56;;;;;;;715.35;341.73;;;;;;;;;;5124776;27;20860;-65
2022/10/20 06:49:37;;;;;;;667.90;337.55;;;;;;;;;;5111774;27;20386;-64
2022/10/20 06:52:03;;;;;;;503.95;291.05;;;;;;;;;;5094089;28;21024;-64
2022/10/20 06:54:29;;;;;;;581.17;320.05;;;;;;;;;;5109965;28;20058;-64
2022/10/20 07:01:33;;;;;;;630.13;331.38;;;;;;;;;;5103222;27;20361;-65
2022/10/20 07:04:00;;;;;;;589.83;318.50;;;;;;;;;;5105528;28;20024;-65
2022/10/20 07:06:28;;;;;;;561.80;309.42;;;;;;;;;;5101728;28;20193;-66
2022/10/20 07:08:58;;;;;;;548.72;309.60;;;;;;;;;;5106242;28;20027;-67
2022/10/20 07:11:25;;;;;;;504.55;299.88;;;;;;;;;;5107068;28;20100;-65
2022/10/20 07:13:52;;;;;;;449.23;279.33;;;;;;;;;;5104321;28;20031;-67
2022/10/20 07:17:01;;;;;;;607.83;367.05;;;;;;;;;;5124438;27;20381;-66
2022/10/20 07:19:27;;;;;;;645.28;381.42;;;;;;;;;;5108652;28;20024;-66
2022/10/20 07:23:11;;;;;;;609.55;340.35;;;;;;;;;;5139310;27;20385;-67
2022/10/20 07:25:37;;;;;;;621.67;362.65;;;;;;;;;;5106828;28;20030;-66
2022/10/20 07:28:03;;;;;;;636.55;362.25;;;;;;;;;;5086419;28;20039;-65
2022/10/20 07:30:29;;;;;;;604.47;332.63;;;;;;;;;;5105173;28;20024;-65
2022/10/20 07:32:55;;;;;;;;;;;;;;;;;;5106453;28;20027;-65
2022/10/20 07:35:21;;;;;;;;;;;;;;;;;;5092774;28;20253;-66
2022/10/20 07:44:19;;;;;;;;;;;;;;;;;;5108300;27;1105576;-66
2022/10/20 07:46:45;;;;;;;;;;;;;;;;;;5170712;27;19911;-67
2022/10/20 07:49:11;;;;;;;;;;;;;;;;;;5169819;27;19962;-67
2022/10/20 07:51:37;;;;;;;;;;;;;;;;;;5167158;27;19907;-67
2022/10/20 07:54:03;;;;;;;;;;;;;;;;;;5154703;27;19914;-67
2022/10/20 07:56:29;;;;;;;;;;;;;;;;;;5149800;27;19915;-67
2022/10/20 07:58:55;;;;;;;;;;;;;;;;;;5154818;27;20379;-67
2022/10/20 08:04:42;;;;;;;;;;;;;;;;;;5083809;27;19925;-63
2022/10/20 08:07:08;;;;;;;;;;;;;;;;;;5046163;28;20082;-65
2022/10/20 08:11:34;;;;;;;;;;;;;;;;;;5097119;27;19917;-64
2022/10/20 08:14:00;;;;;;;;;;;;;;;;;;5059707;28;20475;-66
2022/10/20 08:17:37;;;;;;;;;;;;;;;;;;5097147;27;19971;-67
2022/10/20 08:22:55;;;;;;;;;;;;;;;;;;5096107;27;19916;-65
2022/10/20 08:25:20;;;;;;;;;;;;;;;;;;5065787;28;19920;-65
2022/10/20 08:29:57;;;;;;;;;;;;;;;;;;5129321;27;19911;-65
2022/10/20 08:34:13;;;;;;;;;;;;;;;;;;5099106;27;19959;-65
2022/10/20 08:38:40;;;;;;;;;;;;;;;;;;5095614;27;19913;-66
2022/10/20 08:42:58;;;;;;;826.15;524.58;;;;;;;;;;5129538;27;20103;-66
2022/10/20 08:46:16;;;;;;;798.50;513.95;;;;;;;;;;5158255;27;20410;-66
2022/10/20 08:48:42;;;;;;;790.28;518.22;;;;;;;;;;5140049;27;20406;-66
2022/10/20 08:51:18;;;;;;;857.03;584.65;;;;;;;;;;5143471;27;20478;-67
2022/10/20 08:53:44;;;;;;;812.70;522.47;;;;;;;;;;5132439;27;20019;-66
2022/10/20 08:56:12;;;;;;;854.40;536.30;;;;;;;;;;5146181;27;20034;-65
2022/10/20 09:00:44;;;;;;;883.53;530.38;;;;;;;;;;5110236;27;20387;-66
2022/10/20 09:03:20;;;;;;;533.65;349.27;;;;;;;;;;5102484;28;21334;-65
2022/10/20 09:07:56;;;;;;;8.88;4.05;;;;;;;;;;5121350;27;20370;-67
2022/10/20 09:10:22;;;;;;;10.45;4.80;;;;;;;;;;5106274;28;20024;-66
2022/10/20 09:12:48;;;;;;;7.53;4.65;;;;;;;;;;5103147;28;20032;-66
2022/10/20 09:17:24;;;;;;;8.00;4.57;;;;;;;;;;5084193;28;20382;-66
2022/10/20 09:19:55;;;;;;;12.32;4.40;;;;;;;;;;5087854;28;20145;-65
2022/10/20 09:22:22;;;;;;;13.07;4.82;;;;;;;;;;5085788;28;20029;-65
2022/10/20 09:24:49;;;;;;;10.13;5.28;;;;;;;;;;5087425;28;20387;-64
2022/10/20 09:27:17;;;;;;;10.13;5.63;;;;;;;;;;5088424;28;20087;-64
2022/10/20 09:29:44;;;;;;;13.07;6.97;;;;;;;;;;5071898;28;20458;-65
2022/10/20 09:32:36;;;;;;;9.90;5.10;;;;;;;;;;5062322;28;20017;-66
2022/10/20 09:35:15;;;;;;;9.38;4.80;;;;;;;;;;5060968;28;20164;-67
2022/10/20 09:37:41;;;;;;;9.07;4.95;;;;;;;;;;5047482;28;20515;-66
2022/10/20 09:40:14;;;;;;;12.05;5.47;;;;;;;;;;5068861;28;20021;-65
2022/10/20 09:44:00;;;;;;;11.48;5.00;;;;;;;;;;5091641;27;20390;-65
2022/10/20 09:46:28;;;;;;;9.68;5.72;;;;;;;;;;5071160;28;20132;-65
2022/10/20 09:52:16;;;;;;;8.23;4.80;;;;;;;;;;5123051;27;20369;-65
2022/10/20 09:54:46;;;;;;;9.68;4.78;;;;;;;;;;5102274;28;20107;-65
2022/10/20 09:57:22;;;;;;;9.60;4.88;;;;;;;;;;5104886;27;20369;-65
2022/10/20 09:59:50;;;;;;;7.40;4.10;;;;;;;;;;5106458;28;20080;-66
2022/10/20 10:02:16;;;;;;;7.03;3.60;;;;;;;;;;5089015;28;20048;-65
2022/10/20 10:04:44;;;;;;;9.68;4.68;;;;;;;;;;5108193;28;20471;-66
2022/10/20 10:07:22;;;;;;;10.20;3.92;;;;;;;;;;5109225;28;20032;-66
2022/10/20 10:11:42;;;;;;;7.38;3.47;;;;;;;;;;5116403;27;20377;-66
2022/10/20 10:14:27;;;;;;;6.22;3.47;;;;;;;;;;5129236;27;20332;-66
2022/10/20 10:16:53;;;;;;;5.90;3.35;;;;;;;;;;5125145;28;20023;-66
2022/10/20 10:19:22;;;;;;;10.05;4.47;;;;;;;;;;5109365;28;20422;-66
2022/10/20 10:21:52;;;;;;;6.97;3.88;;;;;;;;;;5107865;28;20491;-66
2022/10/20 10:24:31;;;;;;;8.00;4.03;;;;;;;;;;5114199;28;20026;-66
2022/10/20 10:26:57;;;;;;;8.40;4.22;;;;;;;;;;5088702;28;20100;-66
2022/10/20 10:29:28;;;;;;;8.00;4.30;;;;;;;;;;5087102;28;20445;-66
2022/10/20 10:35:04;;;;;;;7.03;3.95;;;;;;;;;;5120209;27;20383;-66
2022/10/20 10:37:30;;;;;;;6.15;3.90;;;;;;;;;;5088095;28;20477;-65
2022/10/20 10:40:18;;;;;;;6.85;3.30;;;;;;;;;;5143190;27;20374;-65
2022/10/20 10:42:57;;;;;;;8.85;3.90;;;;;;;;;;5110111;28;20027;-64
2022/10/20 10:45:41;;;;;;;8.95;4.40;;;;;;;;;;5110156;28;20028;-65
2022/10/20 10:48:45;;;;;;;8.20;3.63;;;;;;;;;;5126406;27;20369;-66
2022/10/20 10:52:06;;;;;;;5.47;3.08;;;;;;;;;;5126484;27;20396;-66
2022/10/20 10:54:35;;;;;;;6.88;3.88;;;;;;;;;;5110187;28;20032;-64
2022/10/20 10:57:04;;;;;;;6.10;3.38;;;;;;;;;;5104056;28;20024;-65
2022/10/20 10:59:52;;;;;;;7.18;3.95;;;;;;;;;;5122045;27;20369;-66
2022/10/20 11:02:55;;;;;;;7.45;3.88;;;;;;;;;;5117153;27;20378;-63
2022/10/20 11:06:30;;;;;;;5.50;3.13;;;;;;;;;;5171734;27;20434;-63
2022/10/20 11:09:19;;;;;;;5.63;3.25;;;;;;;;;;5116519;28;20047;-65
2022/10/20 11:11:54;;;;;;;7.35;3.80;;;;;;;;;;5131305;28;20023;-65
2022/10/20 11:14:42;;;;;;;7.70;4.18;;;;;;;;;;5130653;28;20031;-65
2022/10/20 11:17:11;;;;;;;8.30;4.55;;;;;;;;;;5129648;28;20383;-65
2022/10/20 11:19:55;;;;;;;6.60;3.80;;;;;;;;;;5131184;28;20027;-65
2022/10/20 11:23:40;;;;;;;7.10;3.47;;;;;;;;;;5126686;27;20380;-64
2022/10/20 11:26:09;;;;;;;7.80;3.05;;;;;;;;;;5110112;28;20027;-64
2022/10/20 11:28:44;;;;;;;7.10;3.05;;;;;;;;;;5109881;28;20093;-65
2022/10/20 11:31:28;;;;;;;5.57;3.08;;;;;;;;;;5096914;28;20534;-65
2022/10/20 11:35:14;;;;;;;7.03;3.25;;;;;;;;;;5114537;27;20382;-66
2022/10/20 11:37:46;;;;;;;6.53;2.97;;;;;;;;;;5088678;28;20425;-66
2022/10/20 11:41:56;;;;;;;5.07;2.70;;;;;;;;;;5118909;27;20386;-65
2022/10/20 11:44:33;;;;;;;7.47;3.83;;;;;;;;;;5089142;28;20376;-65
2022/10/20 11:48:54;;;;;;;5.13;2.63;;;;;;;;;;5125955;27;20377;-65
2022/10/20 11:51:20;;;;;;;4.78;2.42;;;;;;;;;;5103522;28;20028;-67
2022/10/20 11:54:05;;;;;;;3.85;2.00;;;;;;;;;;5110702;28;20111;-66
2022/10/20 11:56:56;;;;;;;5.35;2.78;;;;;;;;;;5107701;28;20016;-68
2022/10/20 12:02:53;;;;;;;7.90;4.28;;;;;;;;;;5117316;27;20385;-66
2022/10/20 12:06:42;;;;;;;7.22;3.78;;;;;;;;;;5125340;27;20365;-67
2022/10/20 12:09:23;;;;;;;6.15;3.35;;;;;;;;;;5109924;28;20586;-68
2022/10/20 12:14:02;;;;;;;6.28;3.22;;;;;;;;;;5079185;27;20390;-67
2022/10/20 12:16:46;;;;;;;5.22;2.63;;;;;;;;;;5085365;28;20167;-67
2022/10/20 12:19:17;;;;;;;5.63;3.05;;;;;;;;;;5068127;28;20025;-68
2022/10/20 12:23:47;;;;;;;4.93;2.97;;;;;;;;;;5124134;27;20366;-70
2022/10/20 12:26:29;;;;;;;5.25;2.75;;;;;;;;;;5094260;28;20017;-67
2022/10/20 12:28:55;;;;;;;7.80;3.47;;;;;;;;;;5088369;28;20024;-69
2022/10/20 12:31:25;;;;;;;7.00;3.03;;;;;;;;;;5086081;28;20024;-66
2022/10/20 12:33:55;;;;;;;7.28;3.65;;;;;;;;;;5083168;28;20021;-66
2022/10/20 12:36:28;;;;;;;6.10;3.08;;;;;;;;;;5084936;28;20028;-66
2022/10/20 12:39:07;;;;;;;6.15;3.15;;;;;;;;;;5081157;28;20029;-67
2022/10/20 12:41:38;;;;;;;7.70;3.58;;;;;;;;;;5081230;28;20081;-67
2022/10/20 12:44:05;;;;;;;7.05;4.10;;;;;;;;;;5084026;28;20056;-66
2022/10/20 12:46:32;;;;;;;7.57;3.00;;;;;;;;;;5084650;28;20021;-67
2022/10/20 12:49:00;;;;;;;6.70;3.67;;;;;;;;;;5085037;28;20020;-66
2022/10/20 12:51:40;;;;;;;5.57;2.83;;;;;;;;;;5084608;28;20330;-68
2022/10/20 12:54:25;;;;;;;5.35;3.05;;;;;;;;;;5084427;28;20115;-67
2022/10/20 12:56:56;;;;;;;9.70;4.20;;;;;;;;;;5083803;28;20042;-66
2022/10/20 12:59:33;;;;;;;7.88;3.20;;;;;;;;;;5082152;28;20525;-66
2022/10/20 13:02:08;;;;;;;9.13;3.50;;;;;;;;;;5082800;28;20269;-66
2022/10/20 13:04:53;;;;;;;7.03;2.80;;;;;;;;;;5087770;28;20021;-67
2022/10/20 13:07:38;;;;;;;7.05;3.30;;;;;;;;;;5081345;28;20035;-67
2022/10/20 13:10:23;;;;;;;8.45;3.53;;;;;;;;;;5086964;28;20059;-67
2022/10/20 13:12:49;;;;;;;7.05;3.85;;;;;;;;;;5087842;28;20066;-67
2022/10/20 13:15:17;;;;;;;6.80;3.55;;;;;;;;;;5089394;28;20030;-67
2022/10/20 13:18:06;;;;;;;5.50;3.53;;;;;;;;;;5089801;28;20415;-67
2022/10/20 13:20:51;;;;;;;7.63;3.42;;;;;;;;;;5083805;28;20492;-67
2022/10/20 13:23:18;;;;;;;7.88;3.72;;;;;;;;;;5089386;28;20044;-67
2022/10/20 13:25:46;;;;;;;5.18;3.00;;;;;;;;;;5089388;28;20510;-66
2022/10/20 13:28:12;;;;;;;5.60;2.95;;;;;;;;;;5089426;28;20033;-67
2022/10/20 13:30:48;;;;;;;7.25;4.13;;;;;;;;;;5089646;28;20027;-66
2022/10/20 13:33:26;;;;;;;4.90;2.92;;;;;;;;;;5085112;28;20024;-66
2022/10/20 13:35:54;;;;;;;5.90;2.83;;;;;;;;;;5074346;28;20036;-66
2022/10/20 13:38:34;;;;;;;3.97;2.47;;;;;;;;;;5076040;28;20041;-66
2022/10/20 13:41:15;;;;;;;3.80;2.65;;;;;;;;;;5075942;28;20422;-66
2022/10/20 13:44:02;;;;;;;5.28;2.90;;;;;;;;;;5074685;28;20036;-66
2022/10/20 13:46:28;;;;;;;4.40;2.95;;;;;;;;;;5075824;28;20066;-66
2022/10/20 13:49:13;;;;;;;4.70;2.58;;;;;;;;;;5074034;28;20024;-66
2022/10/20 13:51:44;;;;;;;9.68;3.15;;;;;;;;;;5075974;28;20043;-66
2022/10/20 13:54:19;;;;;;;5.70;3.20;;;;;;;;;;5075997;28;20028;-66
2022/10/20 13:56:47;;;;;;;6.30;2.90;;;;;;;;;;5075360;28;20032;-65
2022/10/20 13:59:13;;;;;;;7.32;3.35;;;;;;;;;;5075639;28;20070;-65
2022/10/20 14:01:39;;;;;;;6.53;2.80;;;;;;;;;;5075743;28;20392;-65
2022/10/20 14:04:19;;;;;;;9.18;3.28;;;;;;;;;;5075001;28;20032;-65
2022/10/20 14:06:46;;;;;;;6.88;3.67;;;;;;;;;;5075824;28;20530;-66
2022/10/20 14:09:17;;;;;;;6.88;3.83;;;;;;;;;;5075149;28;20029;-65
2022/10/20 14:11:45;;;;;;;5.32;2.75;;;;;;;;;;5075525;28;20059;-65
2022/10/20 14:14:32;;;;;;;6.13;2.97;;;;;;;;;;5074151;28;20146;-65
2022/10/20 14:17:00;;;;;;;6.75;3.90;;;;;;;;;;5074853;28;20025;-67
2022/10/20 14:19:26;;;;;;;6.72;3.60;;;;;;;;;;5075579;28;20376;-66
2022/10/20 14:21:55;;;;;;;6.90;4.05;;;;;;;;;;5075181;28;20493;-66
2022/10/20 14:24:27;;;;;;;8.02;3.40;;;;;;;;;;5074895;28;20020;-65
2022/10/20 14:26:54;;;;;;;9.38;5.30;;;;;;;;;;5075207;28;20031;-65
2022/10/20 14:29:22;;;;;;;13.27;8.23;;;;;;;;;;5075264;28;20032;-66
2022/10/20 14:31:48;;;;;;;9.40;5.25;;;;;;;;;;5074699;28;20070;-67
2022/10/20 14:34:19;;;;;;;8.80;4.47;;;;;;;;;;5075510;28;20427;-66
2022/10/20 14:36:46;;;;;;;6.47;4.10;;;;;;;;;;5075121;28;20016;-66
2022/10/20 14:39:20;;;;;;;6.45;3.97;;;;;;;;;;5074595;28;20032;-66
2022/10/20 14:41:46;;;;;;;8.02;4.88;;;;;;;;;;5074893;28;20020;-66
2022/10/20 14:44:19;;;;;;;7.13;4.18;;;;;;;;;;5074682;28;20028;-66
2022/10/20 14:46:46;;;;;;;7.22;3.05;;;;;;;;;;5074324;28;20020;-66
2022/10/20 14:49:17;;;;;;;8.40;3.65;;;;;;;;;;5074737;28;20035;-66
2022/10/20 14:51:54;;;;;;;7.80;4.15;;;;;;;;;;5074828;28;20103;-66
2022/10/20 14:54:20;;;;;;;8.68;5.10;;;;;;;;;;5073418;28;20070;-66
2022/10/20 14:58:59;;;;;;;8.13;4.63;;;;;;;;;;5127162;27;20399;-67
2022/10/20 15:03:21;;;;;;;8.77;4.72;;;;;;;;;;5127802;27;20369;-66
2022/10/20 15:05:51;;;;;;;9.68;5.53;;;;;;;;;;5110867;28;20035;-66
2022/10/20 15:08:20;;;;;;;11.43;5.85;;;;;;;;;;5111534;28;20047;-66
2022/10/20 15:10:47;;;;;;;9.60;5.18;;;;;;;;;;5111249;28;20020;-66
2022/10/20 15:13:24;;;;;;;9.75;5.45;;;;;;;;;;5110939;28;20038;-66
2022/10/20 15:15:50;;;;;;;7.93;5.00;;;;;;;;;;5111240;28;20028;-66
2022/10/20 15:18:17;;;;;;;8.40;4.70;;;;;;;;;;5111122;28;20020;-66
2022/10/20 15:20:59;;;;;;;11.32;6.57;;;;;;;;;;5147683;27;20372;-66
2022/10/20 15:23:29;;;;;;;11.55;7.28;;;;;;;;;;5131809;28;20058;-66
2022/10/20 15:26:00;;;;;;;13.75;8.25;;;;;;;;;;5131960;28;20023;-66
2022/10/20 15:28:29;;;;;;;9.45;6.38;;;;;;;;;;5131328;28;20094;-68
2022/10/20 15:31:39;;;;;;;10.68;6.93;;;;;;;;;;5123770;27;20123;-66
2022/10/20 15:35:52;;;;;;;7.93;4.68;;;;;;;;;;5126950;27;20858;-67
2022/10/20 15:38:18;;;;;;;8.93;5.07;;;;;;;;;;5111308;28;20057;-66
2022/10/20 15:41:31;;;;;;;9.13;5.78;;;;;;;;;;5144228;27;20374;-65
2022/10/20 15:48:33;;;;;;;12.13;6.63;;;;;;;;;;5124642;27;20384;-66
2022/10/20 15:50:59;;;;;;;18.17;9.23;;;;;;;;;;5109250;28;20488;-66
2022/10/20 15:54:57;;;;;;;20.83;11.07;;;;;;;;;;5124934;27;20801;-68
2022/10/20 15:58:59;;;;;;;13.82;7.70;;;;;;;;;;5125327;27;20373;-67
2022/10/20 16:01:43;;;;;;;11.93;7.38;;;;;;;;;;5122586;27;20378;-66
2022/10/20 16:06:30;;;;;;;11.30;6.10;;;;;;;;;;5126990;27;20374;-67
2022/10/20 16:08:56;;;;;;;11.13;5.82;;;;;;;;;;5110623;28;20024;-67
2022/10/20 16:11:37;;;;;;;11.73;6.65;;;;;;;;;;5126705;27;20380;-66
2022/10/20 16:14:05;;;;;;;13.38;8.32;;;;;;;;;;5111001;28;20036;-66
2022/10/20 16:16:31;;;;;;;13.55;6.35;;;;;;;;;;5109547;28;20012;-66
2022/10/20 16:18:57;;;;;;;11.40;6.40;;;;;;;;;;5110007;28;20024;-66
2022/10/20 16:26:12;;;;;;;15.43;9.13;;;;;;;;;;5127511;27;20373;-66
2022/10/20 16:29:42;;;;;;;11.10;7.10;;;;;;;;;;5127330;27;20373;-66
2022/10/20 16:32:08;;;;;;;13.48;7.55;;;;;;;;;;5110925;28;20024;-67
2022/10/20 16:34:34;;;;;;;15.00;7.40;;;;;;;;;;5111282;28;20020;-66
2022/10/20 16:38:43;;;;;;;15.50;8.20;;;;;;;;;;5126971;27;20733;-66
2022/10/20 16:43:12;;;;;;;13.43;8.10;;;;;;;;;;5127328;27;20853;-68
2022/10/20 16:49:15;;;;;;;11.20;6.72;;;;;;;;;;5127604;27;20373;-66
2022/10/20 16:51:41;;;;;;;11.48;6.57;;;;;;;;;;5111003;28;20020;-66
2022/10/20 16:54:07;;;;;;;10.13;5.70;;;;;;;;;;5111247;28;20479;-66
2022/10/20 17:01:31;;;;;;;12.32;5.95;;;;;;;;;;5127694;27;20784;-65
2022/10/20 17:04:27;;;;;;;10.65;5.88;;;;;;;;;;5126863;27;20369;-66
2022/10/20 17:06:53;;;;;;;9.60;5.60;;;;;;;;;;5110970;28;20107;-67
2022/10/20 17:09:19;;;;;;;10.75;5.55;;;;;;;;;;5111214;28;20020;-66
2022/10/20 17:11:45;;;;;;;10.52;6.68;;;;;;;;;;5111055;28;20024;-67
2022/10/20 17:14:11;;;;;;;9.82;5.85;;;;;;;;;;5110718;28;20140;-67